KLM87J GCRR-EHAM
Flight info
| Callsign | KLM87J |
|---|---|
| Flight time | N/A |
| Altitude | 39000 |
| Route | VASTO DCT NIDEB DCT TIGGI DCT UNPOT DCT PINEK DCT LOTEE DCT AZFIC DCT ERIGA DCT GODIX DCT PODEM DCT BAZOS DCT BELDI DCT VEKIN DCT ADUTO N873 FERDI Y18 DENUT |
| Aircraft | B77W/H-SDE1E2E3FGHIJ2J3J4J5M1RWXY/LB1D1 |
Departure
| Time | 2026-04-30 10:37 |
|---|---|
| Airport | César Manrique-Lanzarote Airport (GCRR) |
Arrival
| Time | N/A |
|---|---|
| Airport | Amsterdam Airport Schiphol (EHAM) |
| Time | Latitude | Longitude | Altitude | Speed | Heading |
|---|---|---|---|---|---|
| 2026-04-30 10:19 | 28.94959 | -13.60762 | 46 ft | 0 kts | 297° |
| 2026-04-30 10:29 | 28.94956 | -13.60755 | 41 ft | 3 kts | 297° |
| 2026-04-30 10:29 | 28.94945 | -13.60731 | 41 ft | 3 kts | 297° |
| 2026-04-30 10:29 | 28.94935 | -13.60708 | 39 ft | 3 kts | 281° |
| 2026-04-30 10:30 | 28.94937 | -13.60682 | 40 ft | 3 kts | 227° |
| 2026-04-30 10:30 | 28.94955 | -13.60666 | 41 ft | 3 kts | 208° |
| 2026-04-30 10:30 | 28.94958 | -13.60664 | 41 ft | 0 kts | 208° |
| 2026-04-30 10:33 | 28.94948 | -13.60671 | 43 ft | 3 kts | 208° |
| 2026-04-30 10:33 | 28.94934 | -13.60673 | 44 ft | 2 kts | 182° |
| 2026-04-30 10:33 | 28.94920 | -13.60663 | 42 ft | 4 kts | 147° |
| 2026-04-30 10:34 | 28.94890 | -13.60620 | 45 ft | 9 kts | 123° |
| 2026-04-30 10:34 | 28.94840 | -13.60582 | 43 ft | 8 kts | 175° |
| 2026-04-30 10:34 | 28.94766 | -13.60605 | 45 ft | 14 kts | 205° |
| 2026-04-30 10:34 | 28.94661 | -13.60664 | 43 ft | 20 kts | 207° |
| 2026-04-30 10:35 | 28.94517 | -13.60749 | 41 ft | 26 kts | 207° |
| 2026-04-30 10:35 | 28.94383 | -13.60825 | 39 ft | 20 kts | 206° |
| 2026-04-30 10:35 | 28.94241 | -13.60905 | 37 ft | 26 kts | 207° |
| 2026-04-30 10:35 | 28.94065 | -13.61011 | 35 ft | 32 kts | 206° |
| 2026-04-30 10:36 | 28.93895 | -13.61106 | 32 ft | 25 kts | 206° |
| 2026-04-30 10:36 | 28.93760 | -13.61184 | 30 ft | 18 kts | 210° |
| 2026-04-30 10:36 | 28.93642 | -13.61181 | 29 ft | 19 kts | 135° |
| 2026-04-30 10:36 | 28.93653 | -13.61044 | 30 ft | 20 kts | 45° |
| 2026-04-30 10:37 | 28.93919 | -13.60884 | 35 ft | 78 kts | 26° |
| 2026-04-30 10:37 | 28.94625 | -13.60477 | 44 ft | 148 kts | 27° |
| 2026-04-30 10:37 | 28.95740 | -13.59848 | 123 ft | 205 kts | 26° |
| 2026-04-30 10:37 | 28.97086 | -13.59151 | 908 ft | 219 kts | 25° |
| 2026-04-30 10:38 | 28.98523 | -13.58457 | 1884 ft | 229 kts | 22° |
| 2026-04-30 10:38 | 28.99975 | -13.57678 | 2988 ft | 231 kts | 26° |
| 2026-04-30 10:38 | 29.01474 | -13.56787 | 3792 ft | 259 kts | 26° |
| 2026-04-30 10:38 | 29.03147 | -13.55768 | 4511 ft | 279 kts | 26° |
| 2026-04-30 10:39 | 29.04884 | -13.54716 | 5238 ft | 288 kts | 25° |
| 2026-04-30 10:39 | 29.06692 | -13.53644 | 5934 ft | 296 kts | 22° |
| 2026-04-30 10:39 | 29.08689 | -13.53125 | 6690 ft | 297 kts | 359° |
| 2026-04-30 10:39 | 29.10773 | -13.53170 | 7405 ft | 302 kts | 354° |
| 2026-04-30 10:40 | 29.12884 | -13.53363 | 8196 ft | 306 kts | 351° |
| 2026-04-30 10:40 | 29.15015 | -13.53684 | 8965 ft | 311 kts | 349° |
| 2026-04-30 10:40 | 29.17198 | -13.54066 | 9757 ft | 329 kts | 348° |
| 2026-04-30 10:40 | 29.19548 | -13.54507 | 10523 ft | 353 kts | 348° |
| 2026-04-30 10:41 | 29.22002 | -13.54981 | 11262 ft | 373 kts | 348° |
| 2026-04-30 10:41 | 29.24630 | -13.55498 | 12025 ft | 393 kts | 348° |
| 2026-04-30 10:41 | 29.27367 | -13.56041 | 12794 ft | 404 kts | 348° |
| 2026-04-30 10:41 | 29.30166 | -13.56560 | 13555 ft | 411 kts | 352° |
| 2026-04-30 10:42 | 29.33043 | -13.56352 | 14302 ft | 418 kts | 7° |
| 2026-04-30 10:42 | 29.35899 | -13.55657 | 15032 ft | 422 kts | 11° |
| 2026-04-30 10:42 | 29.38738 | -13.54747 | 15755 ft | 426 kts | 14° |
| 2026-04-30 10:42 | 29.41551 | -13.53627 | 16530 ft | 430 kts | 17° |
| 2026-04-30 10:43 | 29.44356 | -13.52385 | 17314 ft | 434 kts | 18° |
| 2026-04-30 10:43 | 29.47170 | -13.51076 | 18102 ft | 439 kts | 19° |
| 2026-04-30 10:43 | 29.50001 | -13.49727 | 18834 ft | 443 kts | 19° |
| 2026-04-30 10:43 | 29.52861 | -13.48348 | 19550 ft | 449 kts | 19° |
| 2026-04-30 10:44 | 29.55763 | -13.46946 | 20284 ft | 455 kts | 19° |
| 2026-04-30 10:44 | 29.58691 | -13.45522 | 21031 ft | 459 kts | 19° |
| 2026-04-30 10:44 | 29.61637 | -13.44078 | 21799 ft | 462 kts | 19° |
| 2026-04-30 10:44 | 29.64608 | -13.42611 | 22590 ft | 467 kts | 19° |
| 2026-04-30 10:45 | 29.67610 | -13.41116 | 23382 ft | 473 kts | 19° |
| 2026-04-30 10:45 | 29.70643 | -13.39595 | 24126 ft | 478 kts | 19° |
| 2026-04-30 10:45 | 29.73697 | -13.38048 | 24854 ft | 480 kts | 19° |
| 2026-04-30 10:45 | 29.76752 | -13.36483 | 25582 ft | 480 kts | 19° |
| 2026-04-30 10:46 | 29.79799 | -13.34903 | 26310 ft | 481 kts | 19° |
| 2026-04-30 10:46 | 29.82846 | -13.33303 | 27072 ft | 482 kts | 19° |
| 2026-04-30 10:46 | 29.85902 | -13.31678 | 27856 ft | 485 kts | 19° |
| 2026-04-30 10:46 | 29.88931 | -13.30051 | 28651 ft | 488 kts | 19° |
| 2026-04-30 10:47 | 29.92015 | -13.28377 | 29483 ft | 492 kts | 19° |
| 2026-04-30 10:47 | 29.95103 | -13.26682 | 30309 ft | 490 kts | 19° |
| 2026-04-30 10:47 | 29.98156 | -13.24981 | 31015 ft | 484 kts | 19° |
| 2026-04-30 10:47 | 30.01159 | -13.23278 | 31752 ft | 477 kts | 19° |
| 2026-04-30 10:48 | 30.04110 | -13.21573 | 32512 ft | 472 kts | 19° |
| 2026-04-30 10:48 | 30.07021 | -13.19861 | 33286 ft | 468 kts | 19° |
| 2026-04-30 10:48 | 30.09901 | -13.18139 | 34097 ft | 465 kts | 19° |
| 2026-04-30 10:48 | 30.12773 | -13.16399 | 34583 ft | 469 kts | 19° |
| 2026-04-30 10:49 | 30.15685 | -13.14634 | 34803 ft | 476 kts | 19° |
| 2026-04-30 10:49 | 30.18630 | -13.12854 | 34929 ft | 478 kts | 19° |
| 2026-04-30 10:49 | 30.24497 | -13.09327 | 34970 ft | 471 kts | 19° |
| 2026-04-30 10:50 | 30.30262 | -13.05853 | 34997 ft | 465 kts | 19° |
| 2026-04-30 10:50 | 30.36020 | -13.02378 | 35006 ft | 468 kts | 19° |
| 2026-04-30 10:51 | 30.41818 | -12.98885 | 35001 ft | 470 kts | 19° |
| 2026-04-30 10:51 | 30.47614 | -12.95389 | 34998 ft | 469 kts | 19° |
| 2026-04-30 10:52 | 30.52415 | -12.92487 | 34996 ft | 468 kts | 19° |
| 2026-04-30 10:52 | 30.58183 | -12.88992 | 34999 ft | 468 kts | 19° |
| 2026-04-30 10:53 | 30.63968 | -12.85487 | 35008 ft | 470 kts | 19° |
| 2026-04-30 10:53 | 30.69769 | -12.81971 | 35000 ft | 470 kts | 19° |
| 2026-04-30 10:54 | 30.75561 | -12.78456 | 34994 ft | 469 kts | 19° |
| 2026-04-30 10:54 | 30.81346 | -12.74958 | 35008 ft | 469 kts | 20° |
| 2026-04-30 10:55 | 30.87170 | -12.71493 | 34996 ft | 471 kts | 19° |
| 2026-04-30 10:55 | 30.93001 | -12.68031 | 34993 ft | 470 kts | 19° |
| 2026-04-30 10:56 | 30.98786 | -12.64590 | 35006 ft | 470 kts | 19° |
| 2026-04-30 10:56 | 31.04605 | -12.61119 | 34994 ft | 470 kts | 19° |
| 2026-04-30 10:57 | 31.10425 | -12.57643 | 34992 ft | 470 kts | 19° |
| 2026-04-30 10:57 | 31.16238 | -12.54162 | 34992 ft | 469 kts | 19° |
| 2026-04-30 10:58 | 31.22055 | -12.50683 | 34998 ft | 471 kts | 20° |
| 2026-04-30 10:58 | 31.27922 | -12.47201 | 34997 ft | 474 kts | 20° |
| 2026-04-30 10:59 | 31.33799 | -12.43715 | 34991 ft | 473 kts | 20° |
| 2026-04-30 10:59 | 31.39646 | -12.40234 | 35003 ft | 472 kts | 20° |
| 2026-04-30 11:00 | 31.42635 | -12.38513 | 34991 ft | 486 kts | 20° |
| 2026-04-30 11:00 | 31.45726 | -12.36791 | 35013 ft | 497 kts | 20° |